sensor_id;sensor_type;location;lat;lon;timestamp;pressure;altitude;pressure_sealevel;temperature;humidity
68654;BME280;55636;51.108;13.622;2023-05-09T00:00:03;101096.28;;;9.27;45.18
68654;BME280;55636;51.108;13.622;2023-05-09T00:01:10;101103.09;;;9.24;45.17
68654;BME280;55636;51.108;13.622;2023-05-09T00:02:13;101093.38;;;9.21;45.22
68654;BME280;55636;51.108;13.622;2023-05-09T00:03:16;101093.63;;;9.20;45.18
68654;BME280;55636;51.108;13.622;2023-05-09T00:04:18;101091.91;;;9.19;45.10
68654;BME280;55636;51.108;13.622;2023-05-09T00:05:21;101095.75;;;9.18;45.13
68654;BME280;55636;51.108;13.622;2023-05-09T00:06:24;101094.91;;;9.17;45.14
68654;BME280;55636;51.108;13.622;2023-05-09T00:07:28;101091.53;;;9.15;45.19
68654;BME280;55636;51.108;13.622;2023-05-09T00:08:31;101090.72;;;9.15;45.04
68654;BME280;55636;51.108;13.622;2023-05-09T00:09:33;101085.44;;;9.13;45.05
68654;BME280;55636;51.108;13.622;2023-05-09T00:10:36;101087.56;;;9.11;45.10
68654;BME280;55636;51.108;13.622;2023-05-09T00:11:40;101095.84;;;9.11;45.04
68654;BME280;55636;51.108;13.622;2023-05-09T00:12:43;101084.00;;;9.11;45.17
68654;BME280;55636;51.108;13.622;2023-05-09T00:13:45;101098.84;;;9.10;45.02
68654;BME280;55636;51.108;13.622;2023-05-09T00:14:48;101087.19;;;9.08;44.93
68654;BME280;55636;51.108;13.622;2023-05-09T00:15:52;101085.28;;;9.08;45.05
68654;BME280;55636;51.108;13.622;2023-05-09T00:16:55;101088.25;;;9.07;44.91
68654;BME280;55636;51.108;13.622;2023-05-09T00:18:00;101079.41;;;9.04;45.03
68654;BME280;55636;51.108;13.622;2023-05-09T00:19:02;101093.19;;;9.04;44.87
68654;BME280;55636;51.108;13.622;2023-05-09T00:20:08;101095.31;;;9.02;44.96
68654;BME280;55636;51.108;13.622;2023-05-09T00:21:13;101095.56;;;9.01;44.96
68654;BME280;55636;51.108;13.622;2023-05-09T00:22:16;101089.22;;;9.00;45.00
68654;BME280;55636;51.108;13.622;2023-05-09T00:23:20;101087.28;;;9.01;44.91
68654;BME280;55636;51.108;13.622;2023-05-09T00:24:23;101086.66;;;8.99;44.91
68654;BME280;55636;51.108;13.622;2023-05-09T00:25:25;101088.00;;;8.96;44.92
68654;BME280;55636;51.108;13.622;2023-05-09T00:26:28;101080.56;;;8.97;45.03
68654;BME280;55636;51.108;13.622;2023-05-09T00:27:30;101081.88;;;8.94;45.02
68654;BME280;55636;51.108;13.622;2023-05-09T00:28:33;101084.63;;;8.94;44.94
68654;BME280;55636;51.108;13.622;2023-05-09T00:29:35;101083.16;;;8.92;44.91
68654;BME280;55636;51.108;13.622;2023-05-09T00:30:38;101090.59;;;8.91;45.09
68654;BME280;55636;51.108;13.622;2023-05-09T00:31:40;101089.75;;;8.91;44.97
68654;BME280;55636;51.108;13.622;2023-05-09T00:32:42;101088.69;;;8.92;44.73
68654;BME280;55636;51.108;13.622;2023-05-09T00:33:45;101092.50;;;8.91;44.87
68654;BME280;55636;51.108;13.622;2023-05-09T00:34:49;101081.72;;;8.89;44.88
68654;BME280;55636;51.108;13.622;2023-05-09T00:35:54;101092.97;;;8.87;44.88
68654;BME280;55636;51.108;13.622;2023-05-09T00:36:57;101080.25;;;8.86;44.82
68654;BME280;55636;51.108;13.622;2023-05-09T00:37:59;101084.94;;;8.86;44.94
68654;BME280;55636;51.108;13.622;2023-05-09T00:39:03;101082.41;;;8.84;44.74
68654;BME280;55636;51.108;13.622;2023-05-09T00:40:07;101076.88;;;8.84;44.84
68654;BME280;55636;51.108;13.622;2023-05-09T00:41:10;101080.75;;;8.83;44.97
68654;BME280;55636;51.108;13.622;2023-05-09T00:42:13;101085.38;;;8.83;44.98
68654;BME280;55636;51.108;13.622;2023-05-09T00:43:16;101080.94;;;8.82;44.76
68654;BME280;55636;51.108;13.622;2023-05-09T00:44:19;101088.16;;;8.83;44.81
68654;BME280;55636;51.108;13.622;2023-05-09T00:45:22;101089.22;;;8.82;44.89
68654;BME280;55636;51.108;13.622;2023-05-09T00:46:24;101092.22;;;8.80;44.91
68654;BME280;55636;51.108;13.622;2023-05-09T00:47:29;101083.34;;;8.78;44.87
68654;BME280;55636;51.108;13.622;2023-05-09T00:48:32;101083.34;;;8.78;44.67
68654;BME280;55636;51.108;13.622;2023-05-09T00:49:35;101083.34;;;8.78;44.82
68654;BME280;55636;51.108;13.622;2023-05-09T00:50:38;101086.31;;;8.77;44.75
68654;BME280;55636;51.108;13.622;2023-05-09T00:51:41;101088.00;;;8.78;44.77
68654;BME280;55636;51.108;13.622;2023-05-09T00:52:43;101086.31;;;8.77;44.96
68654;BME280;55636;51.108;13.622;2023-05-09T00:53:45;101078.91;;;8.77;44.81
68654;BME280;55636;51.108;13.622;2023-05-09T00:54:50;101082.72;;;8.76;45.05
68654;BME280;55636;51.108;13.622;2023-05-09T00:55:54;101079.31;;;8.74;45.01
68654;BME280;55636;51.108;13.622;2023-05-09T00:56:57;101080.16;;;8.75;44.81
68654;BME280;55636;51.108;13.622;2023-05-09T00:58:00;101081.03;;;8.75;45.01
68654;BME280;55636;51.108;13.622;2023-05-09T00:59:04;101079.53;;;8.72;45.03
68654;BME280;55636;51.108;13.622;2023-05-09T01:00:08;101079.78;;;8.71;44.94
68654;BME280;55636;51.108;13.622;2023-05-09T01:01:16;101073.44;;;8.70;44.96
68654;BME280;55636;51.108;13.622;2023-05-09T01:02:19;101067.56;;;8.67;45.12
68654;BME280;55636;51.108;13.622;2023-05-09T01:03:21;101070.31;;;8.67;45.06
68654;BME280;55636;51.108;13.622;2023-05-09T01:04:25;101065.63;;;8.67;44.92
68654;BME280;55636;51.108;13.622;2023-05-09T01:05:37;101066.72;;;8.66;45.16
68654;BME280;55636;51.108;13.622;2023-05-09T01:06:59;101059.53;;;8.65;44.85
68654;BME280;55636;51.108;13.622;2023-05-09T01:08:12;101059.97;;;8.62;45.19
68654;BME280;55636;51.108;13.622;2023-05-09T01:10:59;101058.31;;;8.61;45.00
68654;BME280;55636;51.108;13.622;2023-05-09T01:12:19;101060.44;;;8.59;45.20
68654;BME280;55636;51.108;13.622;2023-05-09T01:15:58;101056.22;;;8.57;45.02
68654;BME280;55636;51.108;13.622;2023-05-09T01:17:25;101058.97;;;8.57;44.89
68654;BME280;55636;51.108;13.622;2023-05-09T01:18:37;101053.72;;;8.55;44.99
68654;BME280;55636;51.108;13.622;2023-05-09T01:20:06;101059.66;;;8.52;45.04
68654;BME280;55636;51.108;13.622;2023-05-09T01:21:19;101050.81;;;8.50;45.11
68654;BME280;55636;51.108;13.622;2023-05-09T01:22:28;101050.19;;;8.48;45.23
68654;BME280;55636;51.108;13.622;2023-05-09T01:23:57;101059.31;;;8.48;45.12
68654;BME280;55636;51.108;13.622;2023-05-09T01:26:35;101043.84;;;8.47;45.02
68654;BME280;55636;51.108;13.622;2023-05-09T01:28:11;101046.59;;;8.47;45.00
68654;BME280;55636;51.108;13.622;2023-05-09T01:29:48;101043.22;;;8.45;45.16
68654;BME280;55636;51.108;13.622;2023-05-09T01:30:50;101044.31;;;8.44;45.19
68654;BME280;55636;51.108;13.622;2023-05-09T01:31:54;101047.06;;;8.44;45.17
68654;BME280;55636;51.108;13.622;2023-05-09T01:32:58;101037.94;;;8.44;45.05
68654;BME280;55636;51.108;13.622;2023-05-09T01:34:04;101042.84;;;8.42;45.22
68654;BME280;55636;51.108;13.622;2023-05-09T01:35:11;101047.50;;;8.41;45.18
68654;BME280;55636;51.108;13.622;2023-05-09T01:36:16;101036.72;;;8.39;45.12
68654;BME280;55636;51.108;13.622;2023-05-09T01:37:27;101035.91;;;8.39;45.39
68654;BME280;55636;51.108;13.622;2023-05-09T01:38:31;101041.41;;;8.39;45.26
68654;BME280;55636;51.108;13.622;2023-05-09T01:39:38;101042.72;;;8.36;45.32
68654;BME280;55636;51.108;13.622;2023-05-09T01:40:43;101030.84;;;8.36;45.21
68654;BME280;55636;51.108;13.622;2023-05-09T01:41:46;101037.19;;;8.36;45.24
68654;BME280;55636;51.108;13.622;2023-05-09T01:42:55;101030.84;;;8.36;45.19
68654;BME280;55636;51.108;13.622;2023-05-09T01:44:01;101038.25;;;8.35;45.34
68654;BME280;55636;51.108;13.622;2023-05-09T01:45:05;101038.50;;;8.34;45.41
68654;BME280;55636;51.108;13.622;2023-05-09T01:46:09;101035.75;;;8.34;45.29
68654;BME280;55636;51.108;13.622;2023-05-09T01:47:15;101039.56;;;8.33;45.43
68654;BME280;55636;51.108;13.622;2023-05-09T01:48:20;101033.19;;;8.32;45.30
68654;BME280;55636;51.108;13.622;2023-05-09T01:49:29;101030.69;;;8.31;45.34
68654;BME280;55636;51.108;13.622;2023-05-09T01:50:35;101036.19;;;8.31;45.36
68654;BME280;55636;51.108;13.622;2023-05-09T01:51:38;101036.66;;;8.28;45.37
68654;BME280;55636;51.108;13.622;2023-05-09T01:52:47;101025.66;;;8.28;45.39
68654;BME280;55636;51.108;13.622;2023-05-09T01:53:51;101034.97;;;8.27;45.58
68654;BME280;55636;51.108;13.622;2023-05-09T01:54:55;101033.28;;;8.26;45.40
68654;BME280;55636;51.108;13.622;2023-05-09T01:55:59;101027.19;;;8.24;45.54
68654;BME280;55636;51.108;13.622;2023-05-09T01:57:03;101037.13;;;8.25;45.38
68654;BME280;55636;51.108;13.622;2023-05-09T01:58:06;101029.06;;;8.23;45.51
68654;BME280;55636;51.108;13.622;2023-05-09T01:59:10;101024.66;;;8.22;45.44
68654;BME280;55636;51.108;13.622;2023-05-09T02:00:17;101026.56;;;8.21;45.51
68654;BME280;55636;51.108;13.622;2023-05-09T02:01:21;101031.22;;;8.21;45.46
68654;BME280;55636;51.108;13.622;2023-05-09T02:02:27;101028.72;;;8.19;45.60
68654;BME280;55636;51.108;13.622;2023-05-09T02:03:31;101036.97;;;8.19;45.65
68654;BME280;55636;51.108;13.622;2023-05-09T02:04:35;101030.84;;;8.17;45.51
68654;BME280;55636;51.108;13.622;2023-05-09T02:05:38;101023.63;;;8.16;45.67
68654;BME280;55636;51.108;13.622;2023-05-09T02:06:43;101037.41;;;8.16;45.68
68654;BME280;55636;51.108;13.622;2023-05-09T02:07:47;101031.91;;;8.16;45.58
68654;BME280;55636;51.108;13.622;2023-05-09T02:08:50;101026.38;;;8.16;45.56
68654;BME280;55636;51.108;13.622;2023-05-09T02:09:54;101032.75;;;8.17;45.59
68654;BME280;55636;51.108;13.622;2023-05-09T02:10:57;101032.13;;;8.15;45.67
68654;BME280;55636;51.108;13.622;2023-05-09T02:12:00;101031.31;;;8.14;45.63
68654;BME280;55636;51.108;13.622;2023-05-09T02:13:03;101028.97;;;8.11;45.64
68654;BME280;55636;51.108;13.622;2023-05-09T02:14:06;101026.47;;;8.10;45.69
68654;BME280;55636;51.108;13.622;2023-05-09T02:15:09;101033.91;;;8.09;45.69
68654;BME280;55636;51.108;13.622;2023-05-09T02:16:14;101026.47;;;8.10;45.81
68654;BME280;55636;51.108;13.622;2023-05-09T02:17:17;101027.53;;;8.09;45.82
68654;BME280;55636;51.108;13.622;2023-05-09T02:18:21;101026.69;;;8.08;45.83
68654;BME280;55636;51.108;13.622;2023-05-09T02:19:24;101025.00;;;8.07;45.89
68654;BME280;55636;51.108;13.622;2023-05-09T02:20:27;101030.28;;;8.09;45.88
68654;BME280;55636;51.108;13.622;2023-05-09T02:21:30;101026.06;;;8.06;45.85
68654;BME280;55636;51.108;13.622;2023-05-09T02:22:32;101030.13;;;8.03;46.02
68654;BME280;55636;51.108;13.622;2023-05-09T02:23:36;101030.75;;;8.05;45.93
68654;BME280;55636;51.108;13.622;2023-05-09T02:24:39;101037.31;;;8.04;45.86
68654;BME280;55636;51.108;13.622;2023-05-09T02:25:42;101031.22;;;8.02;45.92
68654;BME280;55636;51.108;13.622;2023-05-09T02:26:46;101034.78;;;8.03;46.00
68654;BME280;55636;51.108;13.622;2023-05-09T02:27:49;101037.78;;;8.01;45.84
68654;BME280;55636;51.108;13.622;2023-05-09T02:28:53;101032.50;;;8.00;46.09
68654;BME280;55636;51.108;13.622;2023-05-09T02:29:58;101036.31;;;7.99;45.99
68654;BME280;55636;51.108;13.622;2023-05-09T02:31:04;101029.97;;;7.98;46.01
68654;BME280;55636;51.108;13.622;2023-05-09T02:32:10;101029.13;;;7.98;46.10
68654;BME280;55636;51.108;13.622;2023-05-09T02:33:15;101025.75;;;7.96;46.12
68654;BME280;55636;51.108;13.622;2023-05-09T02:34:19;101030.44;;;7.95;46.14
68654;BME280;55636;51.108;13.622;2023-05-09T02:35:22;101012.47;;;7.93;46.06
68654;BME280;55636;51.108;13.622;2023-05-09T02:36:26;101022.63;;;7.92;46.14
68654;BME280;55636;51.108;13.622;2023-05-09T02:37:29;101013.53;;;7.92;46.13
68654;BME280;55636;51.108;13.622;2023-05-09T02:38:32;101011.00;;;7.90;46.22
68654;BME280;55636;51.108;13.622;2023-05-09T02:39:38;101012.06;;;7.89;46.13
68654;BME280;55636;51.108;13.622;2023-05-09T02:40:42;101012.06;;;7.89;46.17
68654;BME280;55636;51.108;13.622;2023-05-09T02:41:48;101006.78;;;7.87;46.18
68654;BME280;55636;51.108;13.622;2023-05-09T02:42:50;101011.66;;;7.85;46.14
68654;BME280;55636;51.108;13.622;2023-05-09T02:43:53;101017.16;;;7.85;46.14
68654;BME280;55636;51.108;13.622;2023-05-09T02:44:56;101010.22;;;7.83;46.20
68654;BME280;55636;51.108;13.622;2023-05-09T02:45:58;101011.31;;;7.82;46.34
68654;BME280;55636;51.108;13.622;2023-05-09T02:47:02;101017.63;;;7.82;46.35
68654;BME280;55636;51.108;13.622;2023-05-09T02:48:05;101020.63;;;7.81;46.29
68654;BME280;55636;51.108;13.622;2023-05-09T02:49:10;101017.25;;;7.79;46.26
68654;BME280;55636;51.108;13.622;2023-05-09T02:50:32;101012.84;;;7.78;46.42
68654;BME280;55636;51.108;13.622;2023-05-09T02:51:34;101014.72;;;7.77;46.32
68654;BME280;55636;51.108;13.622;2023-05-09T02:52:37;101011.38;;;7.75;46.44
68654;BME280;55636;51.108;13.622;2023-05-09T02:53:39;101013.25;;;7.75;46.36
68654;BME280;55636;51.108;13.622;2023-05-09T02:54:41;101016.00;;;7.75;46.40
68654;BME280;55636;51.108;13.622;2023-05-09T02:55:44;101010.97;;;7.71;46.36
68654;BME280;55636;51.108;13.622;2023-05-09T02:56:46;101014.56;;;7.72;46.43
68654;BME280;55636;51.108;13.622;2023-05-09T02:57:49;101017.53;;;7.70;46.45
68654;BME280;55636;51.108;13.622;2023-05-09T02:59:05;101015.84;;;7.69;46.48
68654;BME280;55636;51.108;13.622;2023-05-09T03:00:09;101013.09;;;7.69;46.46
68654;BME280;55636;51.108;13.622;2023-05-09T03:01:13;101021.56;;;7.68;46.54
68654;BME280;55636;51.108;13.622;2023-05-09T03:02:16;101014.38;;;7.67;46.55
68654;BME280;55636;51.108;13.622;2023-05-09T03:03:21;101016.53;;;7.65;46.62
68654;BME280;55636;51.108;13.622;2023-05-09T03:04:25;101026.69;;;7.64;46.56
68654;BME280;55636;51.108;13.622;2023-05-09T03:05:27;101017.81;;;7.62;46.71
68654;BME280;55636;51.108;13.622;2023-05-09T03:06:30;101020.56;;;7.62;46.57
68654;BME280;55636;51.108;13.622;2023-05-09T03:07:32;101019.72;;;7.62;46.66
68654;BME280;55636;51.108;13.622;2023-05-09T03:08:36;101012.75;;;7.59;46.64
68654;BME280;55636;51.108;13.622;2023-05-09T03:09:38;101020.19;;;7.59;46.79
68654;BME280;55636;51.108;13.622;2023-05-09T03:10:42;101024.84;;;7.58;46.83
68654;BME280;55636;51.108;13.622;2023-05-09T03:11:45;101017.66;;;7.57;46.76
68654;BME280;55636;51.108;13.622;2023-05-09T03:12:49;101002.44;;;7.54;46.79
68654;BME280;55636;51.108;13.622;2023-05-09T03:13:51;101015.34;;;7.54;46.74
68654;BME280;55636;51.108;13.622;2023-05-09T03:14:54;101018.31;;;7.52;46.75
68654;BME280;55636;51.108;13.622;2023-05-09T03:15:56;101010.31;;;7.51;46.83
68654;BME280;55636;51.108;13.622;2023-05-09T03:16:59;101003.97;;;7.50;46.89
68654;BME280;55636;51.108;13.622;2023-05-09T03:18:07;101011.59;;;7.48;46.94
68654;BME280;55636;51.108;13.622;2023-05-09T03:19:11;101010.75;;;7.48;46.90
68654;BME280;55636;51.108;13.622;2023-05-09T03:20:14;101012.66;;;7.47;46.90
68654;BME280;55636;51.108;13.622;2023-05-09T03:21:16;101005.47;;;7.46;46.90
68654;BME280;55636;51.108;13.622;2023-05-09T03:22:19;101008.22;;;7.46;46.96
68654;BME280;55636;51.108;13.622;2023-05-09T03:23:28;101007.59;;;7.44;46.98
68654;BME280;55636;51.108;13.622;2023-05-09T03:24:31;101009.50;;;7.44;46.90
68654;BME280;55636;51.108;13.622;2023-05-09T03:25:33;101002.13;;;7.44;47.00
68654;BME280;55636;51.108;13.622;2023-05-09T03:26:35;101001.25;;;7.44;46.96
68654;BME280;55636;51.108;13.622;2023-05-09T03:27:38;100996.84;;;7.43;46.92
68654;BME280;55636;51.108;13.622;2023-05-09T03:28:45;100998.72;;;7.42;46.94
68654;BME280;55636;51.108;13.622;2023-05-09T03:29:51;100996.22;;;7.41;47.06
68654;BME280;55636;51.108;13.622;2023-05-09T03:30:55;100997.28;;;7.39;47.08
68654;BME280;55636;51.108;13.622;2023-05-09T03:32:00;100998.31;;;7.38;47.04
68654;BME280;55636;51.108;13.622;2023-05-09T03:33:04;100992.22;;;7.36;47.13
68654;BME280;55636;51.108;13.622;2023-05-09T03:34:07;100994.16;;;7.36;47.05
68654;BME280;55636;51.108;13.622;2023-05-09T03:35:14;100990.78;;;7.34;47.04
68654;BME280;55636;51.108;13.622;2023-05-09T03:36:17;100994.59;;;7.33;47.06
68654;BME280;55636;51.108;13.622;2023-05-09T03:37:20;100990.13;;;7.32;47.13
68654;BME280;55636;51.108;13.622;2023-05-09T03:38:22;100990.38;;;7.30;47.11
68654;BME280;55636;51.108;13.622;2023-05-09T03:39:25;100998.38;;;7.32;47.09
68654;BME280;55636;51.108;13.622;2023-05-09T03:40:30;100995.25;;;7.28;47.19
68654;BME280;55636;51.108;13.622;2023-05-09T03:41:40;100989.97;;;7.27;47.23
68654;BME280;55636;51.108;13.622;2023-05-09T03:42:42;100987.22;;;7.27;47.04
68654;BME280;55636;51.108;13.622;2023-05-09T03:43:46;100985.56;;;7.26;47.22
68654;BME280;55636;51.108;13.622;2023-05-09T03:44:48;100989.97;;;7.27;47.16
68654;BME280;55636;51.108;13.622;2023-05-09T03:45:55;100990.19;;;7.25;47.14
68654;BME280;55636;51.108;13.622;2023-05-09T03:46:58;100986.63;;;7.25;47.07
68654;BME280;55636;51.108;13.622;2023-05-09T03:48:02;100994.88;;;7.25;47.18
68654;BME280;55636;51.108;13.622;2023-05-09T03:49:06;100984.94;;;7.23;47.18
68654;BME280;55636;51.108;13.622;2023-05-09T03:50:10;100983.00;;;7.24;47.08
68654;BME280;55636;51.108;13.622;2023-05-09T03:51:14;100983.25;;;7.22;47.16
68654;BME280;55636;51.108;13.622;2023-05-09T03:52:18;100989.78;;;7.21;47.17
68654;BME280;55636;51.108;13.622;2023-05-09T03:53:21;100981.78;;;7.20;47.23
68654;BME280;55636;51.108;13.622;2023-05-09T03:54:26;100988.13;;;7.20;47.11
68654;BME280;55636;51.108;13.622;2023-05-09T03:55:29;100981.56;;;7.21;47.03
68654;BME280;55636;51.108;13.622;2023-05-09T03:56:31;100984.53;;;7.20;47.14
68654;BME280;55636;51.108;13.622;2023-05-09T03:57:34;100987.03;;;7.21;47.17
68654;BME280;55636;51.108;13.622;2023-05-09T03:58:37;100989.19;;;7.19;47.14
68654;BME280;55636;51.108;13.622;2023-05-09T03:59:41;100985.59;;;7.19;47.17
68654;BME280;55636;51.108;13.622;2023-05-09T04:00:44;100982.63;;;7.20;47.26
68654;BME280;55636;51.108;13.622;2023-05-09T04:01:53;100991.94;;;7.19;47.15
68654;BME280;55636;51.108;13.622;2023-05-09T04:02:58;100985.59;;;7.19;47.23
68654;BME280;55636;51.108;13.622;2023-05-09T04:04:10;100990.25;;;7.18;47.12
68654;BME280;55636;51.108;13.622;2023-05-09T04:05:14;100986.69;;;7.18;47.19
68654;BME280;55636;51.108;13.622;2023-05-09T04:06:18;100989.41;;;7.18;47.15
68654;BME280;55636;51.108;13.622;2023-05-09T04:07:20;100991.94;;;7.19;47.12
68654;BME280;55636;51.108;13.622;2023-05-09T04:08:23;100990.25;;;7.18;47.22
68654;BME280;55636;51.108;13.622;2023-05-09T04:09:26;100987.50;;;7.18;47.13
68654;BME280;55636;51.108;13.622;2023-05-09T04:10:29;100987.50;;;7.18;47.29
68654;BME280;55636;51.108;13.622;2023-05-09T04:11:32;100983.94;;;7.18;47.25
68654;BME280;55636;51.108;13.622;2023-05-09T04:12:35;100984.75;;;7.18;47.19
68654;BME280;55636;51.108;13.622;2023-05-09T04:13:38;100990.25;;;7.18;47.32
68654;BME280;55636;51.108;13.622;2023-05-09T04:14:53;100999.31;;;7.19;47.23
68654;BME280;55636;51.108;13.622;2023-05-09T04:15:58;100987.50;;;7.18;47.30
68654;BME280;55636;51.108;13.622;2023-05-09T04:17:03;100990.25;;;7.18;47.27
68654;BME280;55636;51.108;13.622;2023-05-09T04:18:06;100997.44;;;7.19;47.23
68654;BME280;55636;51.108;13.622;2023-05-09T04:19:08;100993.63;;;7.20;47.37
68654;BME280;55636;51.108;13.622;2023-05-09T04:20:11;100990.03;;;7.20;47.64
68654;BME280;55636;51.108;13.622;2023-05-09T04:21:14;100988.13;;;7.20;47.41
68654;BME280;55636;51.108;13.622;2023-05-09T04:22:18;100981.56;;;7.21;47.42
68654;BME280;55636;51.108;13.622;2023-05-09T04:23:20;100983.88;;;7.25;47.52
68654;BME280;55636;51.108;13.622;2023-05-09T04:24:23;100981.94;;;7.25;47.40
68654;BME280;55636;51.108;13.622;2023-05-09T04:25:25;100985.09;;;7.29;47.47
68654;BME280;55636;51.108;13.622;2023-05-09T04:26:27;100988.25;;;7.32;47.35
68654;BME280;55636;51.108;13.622;2023-05-09T04:27:32;100982.28;;;7.35;47.21
68654;BME280;55636;51.108;13.622;2023-05-09T04:28:34;100983.75;;;7.38;47.46
68654;BME280;55636;51.108;13.622;2023-05-09T04:29:37;100984.16;;;7.42;47.40
68654;BME280;55636;51.108;13.622;2023-05-09T04:30:41;100985.38;;;7.46;47.42
68654;BME280;55636;51.108;13.622;2023-05-09T04:31:44;100987.47;;;7.50;47.23
68654;BME280;55636;51.108;13.622;2023-05-09T04:32:47;100974.72;;;7.56;47.32
68654;BME280;55636;51.108;13.622;2023-05-09T04:33:51;100982.28;;;7.61;47.39
68654;BME280;55636;51.108;13.622;2023-05-09T04:34:55;100984.13;;;7.67;47.19
68654;BME280;55636;51.108;13.622;2023-05-09T04:36:02;100984.06;;;7.73;47.04
68654;BME280;55636;51.108;13.622;2023-05-09T04:37:04;100973.22;;;7.79;47.16
68654;BME280;55636;51.108;13.622;2023-05-09T04:38:07;100974.84;;;7.86;47.08
68654;BME280;55636;51.108;13.622;2023-05-09T04:39:09;100980.28;;;7.93;46.98
68654;BME280;55636;51.108;13.622;2023-05-09T04:40:16;100977.69;;;7.98;46.67
68654;BME280;55636;51.108;13.622;2023-05-09T04:41:26;100976.31;;;8.08;46.54
68654;BME280;55636;51.108;13.622;2023-05-09T04:42:28;100975.41;;;8.14;46.43
68654;BME280;55636;51.108;13.622;2023-05-09T04:43:31;100977.00;;;8.21;46.34
68654;BME280;55636;51.108;13.622;2023-05-09T04:44:34;100969.53;;;8.29;46.22
68654;BME280;55636;51.108;13.622;2023-05-09T04:45:37;100968.56;;;8.35;46.03
68654;BME280;55636;51.108;13.622;2023-05-09T04:46:40;100971.28;;;8.42;45.68
68654;BME280;55636;51.108;13.622;2023-05-09T04:47:43;100966.75;;;8.47;45.84
68654;BME280;55636;51.108;13.622;2023-05-09T04:48:45;100960.91;;;8.55;45.75
68654;BME280;55636;51.108;13.622;2023-05-09T04:49:47;100964.66;;;8.61;45.57
68654;BME280;55636;51.108;13.622;2023-05-09T04:50:50;100970.06;;;8.68;45.53
68654;BME280;55636;51.108;13.622;2023-05-09T04:51:53;100972.28;;;8.78;45.16
68654;BME280;55636;51.108;13.622;2023-05-09T04:52:55;100965.84;;;8.84;44.90
68654;BME280;55636;51.108;13.622;2023-05-09T04:53:58;100961.69;;;8.93;44.80
68654;BME280;55636;51.108;13.622;2023-05-09T04:55:05;100959.69;;;9.00;44.73
68654;BME280;55636;51.108;13.622;2023-05-09T04:56:12;100971.19;;;9.09;44.67
68654;BME280;55636;51.108;13.622;2023-05-09T04:57:14;100965.34;;;9.17;44.53
68654;BME280;55636;51.108;13.622;2023-05-09T04:58:25;100967.16;;;9.24;44.21
68654;BME280;55636;51.108;13.622;2023-05-09T04:59:29;100968.72;;;9.31;44.04
68654;BME280;55636;51.108;13.622;2023-05-09T05:00:31;100965.25;;;9.36;43.87
68654;BME280;55636;51.108;13.622;2023-05-09T05:01:33;100969.59;;;9.44;43.82
68654;BME280;55636;51.108;13.622;2023-05-09T05:02:36;100968.41;;;9.51;43.80
68654;BME280;55636;51.108;13.622;2023-05-09T05:03:38;100967.22;;;9.59;43.88
68654;BME280;55636;51.108;13.622;2023-05-09T05:04:41;100962.16;;;9.68;43.76
68654;BME280;55636;51.108;13.622;2023-05-09T05:05:43;100954.59;;;9.75;43.42
68654;BME280;55636;51.108;13.622;2023-05-09T05:06:46;100961.06;;;9.81;43.15
68654;BME280;55636;51.108;13.622;2023-05-09T05:07:48;100960.72;;;9.89;43.41
68654;BME280;55636;51.108;13.622;2023-05-09T05:08:56;100963.94;;;9.98;43.17
68654;BME280;55636;51.108;13.622;2023-05-09T05:09:58;100961.91;;;10.05;42.76
68654;BME280;55636;51.108;13.622;2023-05-09T05:11:00;100953.22;;;10.13;42.90
68654;BME280;55636;51.108;13.622;2023-05-09T05:12:03;100957.00;;;10.19;42.63
68654;BME280;55636;51.108;13.622;2023-05-09T05:13:10;100961.03;;;10.28;42.79
68654;BME280;55636;51.108;13.622;2023-05-09T05:14:16;100951.88;;;10.40;42.75
68654;BME280;55636;51.108;13.622;2023-05-09T05:15:19;100955.09;;;10.48;42.53
68654;BME280;55636;51.108;13.622;2023-05-09T05:16:22;100956.63;;;10.56;42.39
68654;BME280;55636;51.108;13.622;2023-05-09T05:17:25;100950.47;;;10.66;41.95
68654;BME280;55636;51.108;13.622;2023-05-09T05:18:32;100955.84;;;10.73;41.73
68654;BME280;55636;51.108;13.622;2023-05-09T05:19:34;100958.72;;;10.78;41.37
68654;BME280;55636;51.108;13.622;2023-05-09T05:20:39;100956.38;;;10.86;41.11
68654;BME280;55636;51.108;13.622;2023-05-09T05:21:42;100949.03;;;10.92;41.10
68654;BME280;55636;51.108;13.622;2023-05-09T05:22:45;100949.69;;;10.99;40.87
68654;BME280;55636;51.108;13.622;2023-05-09T05:23:47;100950.03;;;11.03;40.31
68654;BME280;55636;51.108;13.622;2023-05-09T05:24:50;100949.88;;;11.10;40.54
68654;BME280;55636;51.108;13.622;2023-05-09T05:25:53;100948.88;;;11.16;40.31
68654;BME280;55636;51.108;13.622;2023-05-09T05:26:56;100945.94;;;11.23;40.15
68654;BME280;55636;51.108;13.622;2023-05-09T05:27:59;100955.16;;;11.28;40.23
68654;BME280;55636;51.108;13.622;2023-05-09T05:29:02;100957.78;;;11.35;40.15
68654;BME280;55636;51.108;13.622;2023-05-09T05:30:05;100951.22;;;11.41;40.22
68654;BME280;55636;51.108;13.622;2023-05-09T05:31:07;100951.13;;;11.48;40.11
68654;BME280;55636;51.108;13.622;2023-05-09T05:32:10;100953.44;;;11.56;40.23
68654;BME280;55636;51.108;13.622;2023-05-09T05:33:12;100938.59;;;11.62;39.97
68654;BME280;55636;51.108;13.622;2023-05-09T05:34:15;100947.28;;;11.71;39.92
68654;BME280;55636;51.108;13.622;2023-05-09T05:35:19;100940.50;;;11.79;39.99
68654;BME280;55636;51.108;13.622;2023-05-09T05:36:25;100951.97;;;11.88;39.94
68654;BME280;55636;51.108;13.622;2023-05-09T05:37:27;100955.16;;;11.96;39.72
68654;BME280;55636;51.108;13.622;2023-05-09T05:38:30;100950.50;;;12.02;39.08
68654;BME280;55636;51.108;13.622;2023-05-09T05:39:33;100947.53;;;12.09;39.08
68654;BME280;55636;51.108;13.622;2023-05-09T05:40:38;100948.78;;;12.18;38.99
68654;BME280;55636;51.108;13.622;2023-05-09T05:41:42;100962.41;;;12.25;38.76